Time;durP1;ratioP1;P1;durP2;ratioP2;P2;SDS_P1;SDS_P2;PMS_P1;PMS_P2;Temp;Humidity;BMP_temperature;BMP_pressure;BME280_temperature;BME280_humidity;BME280_pressure;Samples;Min_cycle;Max_cycle;Signal;HPM_P1;HPM_P2
2022/03/25 00:00:14;;;;;;;20.05;13.32;;;;;14.80;102846.00;;;;4969582;28;20222;-74
2022/03/25 00:02:41;;;;;;;19.10;12.73;;;;;14.80;102847.00;;;;4968838;28;20202;-74
2022/03/25 00:05:09;;;;;;;21.15;12.75;;;;;14.80;102843.00;;;;4970186;28;20206;-74
2022/03/25 00:07:36;;;;;;;21.95;12.57;;;;;14.70;102846.00;;;;4968868;28;20221;-74
2022/03/25 00:10:05;;;;;;;18.40;11.90;;;;;14.70;102848.00;;;;4969660;28;20689;-74
2022/03/25 00:12:34;;;;;;;22.13;12.50;;;;;14.60;102843.00;;;;4971074;28;20214;-74
2022/03/25 00:15:01;;;;;;;21.23;12.48;;;;;14.60;102850.00;;;;4970443;28;20225;-74
2022/03/25 00:17:28;;;;;;;23.45;13.05;;;;;14.60;102851.00;;;;4972041;28;20268;-74
2022/03/25 00:19:56;;;;;;;22.13;13.82;;;;;14.60;102849.00;;;;4971137;28;20226;-74
2022/03/25 00:22:23;;;;;;;23.48;14.48;;;;;14.60;102848.00;;;;4973144;28;20482;-74
2022/03/25 00:24:50;;;;;;;19.98;13.98;;;;;14.50;102848.00;;;;4971239;28;20210;-74
2022/03/25 00:27:18;;;;;;;21.67;12.57;;;;;14.50;102853.00;;;;4966613;28;20557;-73
2022/03/25 00:29:47;;;;;;;20.88;13.77;;;;;14.40;102857.00;;;;4974740;28;20768;-74
2022/03/25 00:32:16;;;;;;;22.42;13.98;;;;;14.40;102855.00;;;;4968833;28;20206;-74
2022/03/25 00:34:43;;;;;;;23.33;14.73;;;;;14.40;102860.00;;;;4972313;28;20218;-74
2022/03/25 00:37:11;;;;;;;23.85;14.75;;;;;14.40;102861.00;;;;4971202;28;20665;-74
2022/03/25 00:39:38;;;;;;;22.40;14.10;;;;;14.40;102858.00;;;;4969790;28;20218;-74
2022/03/25 00:42:06;;;;;;;22.30;12.75;;;;;14.30;102860.00;;;;4969690;28;20602;-74
2022/03/25 00:44:33;;;;;;;21.65;14.60;;;;;14.30;102859.00;;;;4971483;28;20200;-74
2022/03/25 00:47:02;;;;;;;28.75;14.68;;;;;14.30;102863.00;;;;4970833;28;20683;-75
2022/03/25 00:49:30;;;;;;;25.83;14.75;;;;;14.30;102861.00;;;;4973615;28;20296;-74
2022/03/25 00:51:58;;;;;;;23.20;15.50;;;;;14.20;102858.00;;;;4974965;28;20234;-74
2022/03/25 00:54:25;;;;;;;25.65;15.15;;;;;14.20;102862.00;;;;4968466;28;20249;-74
2022/03/25 00:56:52;;;;;;;24.25;15.25;;;;;14.20;102852.00;;;;4969112;28;20212;-74
2022/03/25 00:59:20;;;;;;;25.55;14.80;;;;;14.10;102846.00;;;;4964717;28;20743;-74
2022/03/25 01:01:47;;;;;;;27.10;16.80;;;;;14.10;102851.00;;;;4965995;28;20214;-74
2022/03/25 01:04:16;;;;;;;26.35;15.43;;;;;14.10;102856.00;;;;4971090;28;20193;-74
2022/03/25 01:06:43;;;;;;;24.95;15.38;;;;;14.00;102854.00;;;;4970847;28;20207;-74
2022/03/25 01:09:11;;;;;;;27.10;16.35;;;;;14.00;102854.00;;;;4970888;28;20704;-74
2022/03/25 01:11:39;;;;;;;28.73;16.70;;;;;14.00;102855.00;;;;4970594;28;20210;-74
2022/03/25 01:14:08;;;;;;;25.85;15.05;;;;;13.90;102863.00;;;;4967801;28;20197;-74
2022/03/25 01:16:35;;;;;;;26.30;16.65;;;;;13.90;102853.00;;;;4973610;28;20224;-74
2022/03/25 01:19:03;;;;;;;22.85;14.98;;;;;13.90;102859.00;;;;4969758;28;20400;-74
2022/03/25 01:21:32;;;;;;;26.92;16.67;;;;;13.90;102851.00;;;;4973306;28;20230;-74
2022/03/25 01:23:59;;;;;;;25.75;15.35;;;;;13.80;102849.00;;;;4972211;28;20194;-74
2022/03/25 01:26:27;;;;;;;28.52;17.08;;;;;13.80;102859.00;;;;4973509;28;22864;-74
2022/03/25 01:28:55;;;;;;;26.92;16.45;;;;;13.80;102849.00;;;;4969043;28;20739;-74
2022/03/25 01:31:22;;;;;;;26.10;16.52;;;;;13.80;102851.00;;;;4974896;28;20213;-74
2022/03/25 01:33:50;;;;;;;31.05;19.10;;;;;13.70;102850.00;;;;4975282;28;20203;-74
2022/03/25 01:36:19;;;;;;;26.40;17.45;;;;;13.70;102849.00;;;;4970295;28;20744;-74
2022/03/25 01:38:47;;;;;;;29.08;17.40;;;;;13.70;102848.00;;;;4969532;28;20200;-74
2022/03/25 01:41:17;;;;;;;28.85;17.50;;;;;13.60;102844.00;;;;4972599;28;20229;-74
2022/03/25 01:43:51;;;;;;;28.42;18.52;;;;;13.60;102851.00;;;;4969320;28;20300;-74
2022/03/25 01:46:19;;;;;;;31.42;17.63;;;;;13.60;102847.00;;;;4973430;28;20198;-74
2022/03/25 01:48:46;;;;;;;28.80;18.50;;;;;13.60;102855.00;;;;4972589;28;20197;-74
2022/03/25 01:51:16;;;;;;;30.17;18.35;;;;;13.50;102847.00;;;;4963324;28;20209;-74
2022/03/25 01:53:43;;;;;;;30.55;18.17;;;;;13.50;102848.00;;;;4981937;28;20201;-74
2022/03/25 01:56:12;;;;;;;32.78;19.70;;;;;13.40;102846.00;;;;4971759;28;20206;-74
2022/03/25 01:58:41;;;;;;;27.23;17.33;;;;;13.40;102848.00;;;;4985160;28;20201;-74
2022/03/25 02:01:08;;;;;;;26.98;16.23;;;;;13.40;102849.00;;;;4973893;28;20227;-74
2022/03/25 02:03:36;;;;;;;30.10;18.67;;;;;13.30;102841.00;;;;4970432;28;20193;-74
2022/03/25 02:06:04;;;;;;;26.23;16.38;;;;;13.30;102851.00;;;;4967925;28;20229;-74
2022/03/25 02:08:31;;;;;;;29.38;17.67;;;;;13.30;102835.00;;;;4967323;28;20238;-74
2022/03/25 02:10:59;;;;;;;27.05;16.88;;;;;13.20;102841.00;;;;4977939;28;20191;-74
2022/03/25 02:13:28;;;;;;;28.40;16.45;;;;;13.20;102843.00;;;;4985971;28;20321;-74
2022/03/25 02:15:55;;;;;;;31.52;17.23;;;;;13.20;102849.00;;;;4976616;28;20234;-74
2022/03/25 02:18:24;;;;;;;30.60;19.00;;;;;13.10;102851.00;;;;4975176;28;20219;-74
2022/03/25 02:20:51;;;;;;;31.05;18.40;;;;;13.10;102845.00;;;;4973526;28;20304;-74
2022/03/25 02:23:21;;;;;;;31.52;19.58;;;;;13.00;102845.00;;;;4972931;28;20249;-74
2022/03/25 02:25:51;;;;;;;30.98;19.08;;;;;13.00;102841.00;;;;4974706;28;20197;-74
2022/03/25 02:28:18;;;;;;;31.95;19.73;;;;;13.00;102836.00;;;;4979305;28;20233;-74
2022/03/25 02:30:46;;;;;;;32.78;19.83;;;;;12.90;102838.00;;;;4985171;28;20600;-74
2022/03/25 02:33:14;;;;;;;33.20;19.70;;;;;12.90;102830.00;;;;4987753;28;20198;-74
2022/03/25 02:35:43;;;;;;;31.55;20.80;;;;;12.90;102840.00;;;;4975366;28;20210;-74
2022/03/25 02:38:12;;;;;;;37.30;22.40;;;;;12.80;102827.00;;;;4982975;28;20691;-74
2022/03/25 02:40:41;;;;;;;30.60;18.80;;;;;12.80;102831.00;;;;4970035;28;20764;-74
2022/03/25 02:43:09;;;;;;;34.72;21.65;;;;;12.80;102834.00;;;;4972503;28;20198;-74
2022/03/25 02:45:36;;;;;;;33.58;18.98;;;;;12.80;102839.00;;;;4975763;28;20209;-74
2022/03/25 02:48:04;;;;;;;31.23;18.90;;;;;12.80;102835.00;;;;4977067;28;20619;-74
2022/03/25 02:50:32;;;;;;;33.80;20.13;;;;;12.70;102849.00;;;;4966930;28;20202;-74
2022/03/25 02:53:00;;;;;;;30.17;18.77;;;;;12.70;102836.00;;;;4970147;28;20600;-74
2022/03/25 02:55:28;;;;;;;29.27;18.63;;;;;12.70;102835.00;;;;4966667;28;20206;-74
2022/03/25 02:57:57;;;;;;;34.58;20.48;;;;;12.60;102840.00;;;;4973095;28;20210;-73
2022/03/25 03:00:25;;;;;;;32.45;19.00;;;;;12.60;102844.00;;;;4969186;28;20222;-73
2022/03/25 03:02:53;;;;;;;32.95;20.05;;;;;12.60;102838.00;;;;4964496;28;20202;-74
2022/03/25 03:05:21;;;;;;;31.45;19.45;;;;;12.50;102840.00;;;;4981375;28;20206;-74
2022/03/25 03:07:48;;;;;;;32.22;19.02;;;;;12.50;102839.00;;;;4970461;28;20218;-73
2022/03/25 03:10:16;;;;;;;32.40;20.45;;;;;12.40;102836.00;;;;4969628;28;20225;-73
2022/03/25 03:12:44;;;;;;;30.65;18.95;;;;;12.40;102837.00;;;;4984354;28;20205;-73
2022/03/25 03:15:15;;;;;;;32.28;20.60;;;;;12.30;102836.00;;;;4983800;28;20276;-74
2022/03/25 03:17:43;;;;;;;30.58;19.50;;;;;12.30;102834.00;;;;4975954;28;20233;-73
2022/03/25 03:20:11;;;;;;;32.55;20.33;;;;;12.30;102836.00;;;;4958818;28;20665;-73
2022/03/25 03:22:39;;;;;;;33.47;19.80;;;;;12.20;102830.00;;;;4968229;28;20214;-73
2022/03/25 03:25:10;;;;;;;33.17;20.63;;;;;12.10;102838.00;;;;4976235;28;20202;-73
2022/03/25 03:27:37;;;;;;;32.20;20.73;;;;;12.10;102840.00;;;;4974203;28;20245;-74
2022/03/25 03:30:05;;;;;;;33.90;20.80;;;;;12.10;102842.00;;;;4987126;28;20205;-73
2022/03/25 03:32:34;;;;;;;33.25;20.30;;;;;12.00;102841.00;;;;4978389;28;20205;-74
2022/03/25 03:35:02;;;;;;;35.45;21.35;;;;;12.00;102829.00;;;;4984154;28;20664;-74
2022/03/25 03:37:30;;;;;;;35.47;20.58;;;;;12.00;102834.00;;;;4969807;28;20195;-73
2022/03/25 03:39:58;;;;;;;39.17;23.45;;;;;11.90;102832.00;;;;4963102;28;20202;-73
2022/03/25 03:42:25;;;;;;;35.55;21.00;;;;;11.90;102835.00;;;;4969562;28;20222;-73
2022/03/25 03:44:52;;;;;;;35.67;21.27;;;;;11.80;102830.00;;;;4972627;28;20203;-73
2022/03/25 03:47:20;;;;;;;34.40;20.77;;;;;11.80;102828.00;;;;4976136;28;20557;-74
2022/03/25 03:49:48;;;;;;;33.67;20.48;;;;;11.80;102825.00;;;;4981908;28;20218;-73
2022/03/25 03:52:15;;;;;;;33.33;20.42;;;;;11.80;102822.00;;;;4968313;28;20568;-73
2022/03/25 03:54:43;;;;;;;37.47;21.85;;;;;11.70;102821.00;;;;4977880;28;20706;-73
2022/03/25 03:57:10;;;;;;;33.58;20.70;;;;;11.70;102829.00;;;;4969874;28;20213;-73
2022/03/25 03:59:37;;;;;;;35.05;20.58;;;;;11.60;102831.00;;;;4973666;28;20244;-73
2022/03/25 04:02:10;;;;;;;37.70;21.92;;;;;11.60;102828.00;;;;4969783;28;20644;-74
2022/03/25 04:04:37;;;;;;;34.60;20.17;;;;;11.60;102829.00;;;;4961748;28;20201;-74
2022/03/25 04:07:06;;;;;;;36.58;22.73;;;;;11.50;102830.00;;;;4964244;28;20194;-74
2022/03/25 04:09:33;;;;;;;32.67;20.23;;;;;11.50;102828.00;;;;4977150;28;20225;-74
2022/03/25 04:12:01;;;;;;;38.47;21.02;;;;;11.50;102830.00;;;;4978194;28;20243;-74
2022/03/25 04:14:28;;;;;;;34.20;19.80;;;;;11.40;102830.00;;;;4971082;28;20891;-74
2022/03/25 04:16:56;;;;;;;34.22;20.45;;;;;11.40;102835.00;;;;4966005;28;20850;-74
2022/03/25 04:19:23;;;;;;;34.83;21.33;;;;;11.40;102836.00;;;;4970934;28;20206;-74
2022/03/25 04:21:50;;;;;;;33.38;20.88;;;;;11.30;102837.00;;;;4966339;28;20651;-74
2022/03/25 04:24:19;;;;;;;33.60;20.88;;;;;11.30;102838.00;;;;4969663;28;20614;-74
2022/03/25 04:26:46;;;;;;;36.25;21.00;;;;;11.20;102842.00;;;;4966876;28;20240;-74
2022/03/25 04:29:13;;;;;;;35.70;22.65;;;;;11.20;102842.00;;;;4984699;28;20198;-74
2022/03/25 04:31:41;;;;;;;35.45;20.58;;;;;11.20;102847.00;;;;4980359;28;20361;-74
2022/03/25 04:34:08;;;;;;;30.95;20.25;;;;;11.10;102843.00;;;;4972545;28;20265;-74
2022/03/25 04:36:35;;;;;;;32.85;20.50;;;;;11.10;102842.00;;;;4973455;28;20246;-74
2022/03/25 04:39:02;;;;;;;31.27;20.30;;;;;11.10;102848.00;;;;4977845;28;20229;-74
2022/03/25 04:41:31;;;;;;;33.65;19.55;;;;;11.00;102835.00;;;;4975294;28;20221;-74
2022/03/25 04:43:58;;;;;;;35.75;20.77;;;;;11.00;102835.00;;;;4956920;28;20222;-74
2022/03/25 04:46:26;;;;;;;32.72;19.05;;;;;10.90;102838.00;;;;4966527;28;20288;-74
2022/03/25 04:48:53;;;;;;;35.35;20.27;;;;;10.90;102841.00;;;;4972553;28;20272;-74
2022/03/25 04:51:20;;;;;;;33.83;20.17;;;;;10.90;102835.00;;;;4974214;28;20198;-74
2022/03/25 04:53:48;;;;;;;38.60;21.60;;;;;10.80;102839.00;;;;4965751;28;20207;-74
2022/03/25 04:56:15;;;;;;;41.13;22.30;;;;;10.80;102838.00;;;;4963087;28;20289;-74
2022/03/25 04:58:44;;;;;;;30.23;18.38;;;;;10.70;102837.00;;;;4976239;28;20672;-74
2022/03/25 05:01:11;;;;;;;37.17;21.73;;;;;10.70;102837.00;;;;4970059;28;20238;-74
2022/03/25 05:03:38;;;;;;;30.92;18.65;;;;;10.60;102840.00;;;;4975839;28;20217;-74
2022/03/25 05:06:06;;;;;;;32.85;20.55;;;;;10.60;102838.00;;;;4975548;28;20221;-74
2022/03/25 05:08:33;;;;;;;33.53;20.02;;;;;10.60;102842.00;;;;4974789;28;20272;-74
2022/03/25 05:11:01;;;;;;;33.50;19.05;;;;;10.50;102845.00;;;;4974256;28;20720;-74
2022/03/25 05:13:28;;;;;;;34.08;20.52;;;;;10.50;102848.00;;;;4965425;28;20202;-74
2022/03/25 05:15:57;;;;;;;35.03;20.08;;;;;10.40;102857.00;;;;4966615;28;20229;-74
2022/03/25 05:18:24;;;;;;;34.90;19.60;;;;;10.40;102856.00;;;;4970931;28;20232;-74
2022/03/25 05:20:54;;;;;;;34.20;19.17;;;;;10.30;102859.00;;;;4961022;28;20772;-74
2022/03/25 05:23:23;;;;;;;34.28;19.45;;;;;10.30;102861.00;;;;4967513;28;20199;-74
2022/03/25 05:25:50;;;;;;;32.50;19.15;;;;;10.30;102858.00;;;;4967841;28;20202;-74
2022/03/25 05:28:17;;;;;;;30.98;18.60;;;;;10.30;102854.00;;;;4967540;28;20611;-74
2022/03/25 05:30:45;;;;;;;32.55;19.13;;;;;10.30;102860.00;;;;4968706;28;20284;-74
2022/03/25 05:33:13;;;;;;;33.88;19.23;;;;;10.20;102861.00;;;;4973382;28;20206;-74
2022/03/25 05:35:40;;;;;;;33.33;19.13;;;;;10.20;102859.00;;;;4962449;28;20217;-74
2022/03/25 05:38:09;;;;;;;38.13;21.45;;;;;10.20;102866.00;;;;4981535;28;20206;-74
2022/03/25 05:40:36;;;;;;;34.47;21.42;;;;;10.20;102871.00;;;;4974412;28;20579;-74
2022/03/25 05:43:03;;;;;;;34.10;20.35;;;;;10.20;102871.00;;;;4969827;28;20651;-74
2022/03/25 05:45:31;;;;;;;37.78;20.88;;;;;10.20;102867.00;;;;4975204;28;20281;-74
2022/03/25 05:47:58;;;;;;;35.83;20.80;;;;;10.20;102870.00;;;;4985151;28;20205;-74
2022/03/25 05:50:27;;;;;;;35.95;21.05;;;;;10.10;102873.00;;;;4972667;28;20245;-75
2022/03/25 05:52:54;;;;;;;37.72;21.92;;;;;10.20;102864.00;;;;4971933;28;20199;-74
2022/03/25 05:55:21;;;;;;;35.17;22.13;;;;;10.20;102871.00;;;;4972949;28;21249;-74
2022/03/25 05:57:49;;;;;;;44.22;25.70;;;;;10.20;102875.00;;;;4969912;28;20680;-74
2022/03/25 06:00:17;;;;;;;44.15;25.45;;;;;10.20;102874.00;;;;4974693;28;20285;-74
2022/03/25 06:02:45;;;;;;;42.80;25.23;;;;;10.30;102878.00;;;;4972314;28;20229;-74
2022/03/25 06:05:13;;;;;;;40.72;24.83;;;;;10.30;102879.00;;;;4969452;28;20209;-75
2022/03/25 06:07:44;;;;;;;45.42;26.58;;;;;10.40;102873.00;;;;4977626;28;20210;-74
2022/03/25 06:10:14;;;;;;;45.55;26.85;;;;;10.50;102881.00;;;;4976422;28;20222;-75
2022/03/25 06:12:41;;;;;;;46.33;26.80;;;;;10.50;102878.00;;;;4973086;28;20672;-74
2022/03/25 06:15:09;;;;;;;43.65;25.70;;;;;10.60;102878.00;;;;4972773;28;20226;-74
2022/03/25 06:17:43;;;;;;;47.15;28.00;;;;;10.60;102880.00;;;;4971385;28;20205;-74
2022/03/25 06:20:12;;;;;;;43.63;26.17;;;;;10.70;102881.00;;;;4968822;28;20300;-74
2022/03/25 06:22:41;;;;;;;44.30;25.98;;;;;10.80;102880.00;;;;4972053;28;20771;-74
2022/03/25 06:25:11;;;;;;;42.13;25.58;;;;;10.90;102882.00;;;;4972830;28;20222;-74
2022/03/25 06:27:50;;;;;;;49.83;27.23;;;;;10.90;102882.00;;;;4974398;28;20284;-75
2022/03/25 06:30:17;;;;;;;45.10;24.95;;;;;11.00;102887.00;;;;4972863;28;20205;-75
2022/03/25 06:32:45;;;;;;;48.33;25.90;;;;;11.10;102885.00;;;;4974442;28;20214;-74
2022/03/25 06:35:13;;;;;;;48.15;27.45;;;;;11.20;102890.00;;;;4971791;28;20214;-75
2022/03/25 06:37:42;;;;;;;49.25;27.95;;;;;11.20;102899.00;;;;4974404;28;20214;-75
2022/03/25 06:40:11;;;;;;;45.40;26.20;;;;;11.30;102899.00;;;;4973257;28;20198;-74
2022/03/25 06:42:39;;;;;;;44.75;26.40;;;;;11.40;102903.00;;;;4970228;28;20230;-74
2022/03/25 06:45:09;;;;;;;49.28;27.55;;;;;11.50;102903.00;;;;4971803;28;20210;-75
2022/03/25 06:47:36;;;;;;;46.78;27.58;;;;;11.60;102903.00;;;;4970882;28;20266;-74
2022/03/25 06:50:05;;;;;;;44.80;27.38;;;;;11.60;102901.00;;;;4970853;28;20206;-75
2022/03/25 06:52:33;;;;;;;46.50;27.17;;;;;11.70;102909.00;;;;4988690;28;20702;-75
2022/03/25 06:55:03;;;;;;;42.35;26.77;;;;;11.80;102910.00;;;;4986808;28;20205;-75
2022/03/25 06:57:30;;;;;;;45.45;27.23;;;;;11.90;102910.00;;;;4973682;28;20221;-75
2022/03/25 06:59:58;;;;;;;46.05;26.83;;;;;12.00;102905.00;;;;4983793;28;20249;-74
2022/03/25 07:02:26;;;;;;;44.47;27.08;;;;;12.00;102921.00;;;;4971536;28;20634;-74
2022/03/25 07:04:53;;;;;;;43.50;27.02;;;;;12.10;102917.00;;;;4974007;28;20720;-74
2022/03/25 07:07:25;;;;;;;45.63;27.65;;;;;12.20;102924.00;;;;4985912;28;20201;-74
2022/03/25 07:09:53;;;;;;;44.00;26.90;;;;;12.30;102924.00;;;;4968657;28;20226;-75
2022/03/25 07:12:22;;;;;;;44.22;25.63;;;;;12.40;102926.00;;;;4970121;28;20198;-75
2022/03/25 07:14:49;;;;;;;46.90;27.08;;;;;12.50;102931.00;;;;4971816;28;20656;-74
2022/03/25 07:17:16;;;;;;;43.20;26.38;;;;;12.50;102923.00;;;;4971776;28;20612;-75
2022/03/25 07:19:44;;;;;;;43.75;25.98;;;;;12.60;102935.00;;;;4970768;28;20193;-74
2022/03/25 07:22:11;;;;;;;40.22;26.05;;;;;12.70;102937.00;;;;4983961;28;20225;-75
2022/03/25 07:24:38;;;;;;;43.42;27.17;;;;;12.80;102936.00;;;;4990860;28;20202;-74
2022/03/25 07:27:05;;;;;;;46.03;27.05;;;;;12.80;102940.00;;;;4979967;28;20198;-75
2022/03/25 07:29:35;;;;;;;45.10;25.23;;;;;12.90;102944.00;;;;4967723;28;20214;-74
2022/03/25 07:32:04;;;;;;;39.60;24.98;;;;;13.00;102936.00;;;;4970503;28;20206;-75
2022/03/25 07:34:34;;;;;;;45.38;25.58;;;;;13.00;102948.00;;;;4970156;28;20194;-75
2022/03/25 07:37:01;;;;;;;39.35;26.42;;;;;13.10;102935.00;;;;4971226;28;20573;-75
2022/03/25 07:39:28;;;;;;;41.97;26.17;;;;;13.20;102951.00;;;;4971019;28;20202;-75
2022/03/25 07:41:55;;;;;;;44.08;25.45;;;;;13.20;102939.00;;;;4971511;28;20308;-75
2022/03/25 07:44:23;;;;;;;44.47;25.15;;;;;13.40;102945.00;;;;4971565;28;20298;-75
2022/03/25 07:46:51;;;;;;;37.72;24.50;;;;;13.40;102945.00;;;;4971232;28;20195;-75
2022/03/25 07:49:18;;;;;;;37.85;24.75;;;;;13.50;102957.00;;;;4970775;28;20206;-75
2022/03/25 07:51:46;;;;;;;43.05;26.88;;;;;13.60;102959.00;;;;4970922;28;20207;-75
2022/03/25 07:54:13;;;;;;;36.92;23.20;;;;;13.70;102958.00;;;;4970558;28;20552;-75
2022/03/25 07:56:40;;;;;;;38.65;24.20;;;;;13.80;102960.00;;;;4971249;28;20206;-75
2022/03/25 07:59:08;;;;;;;39.30;24.25;;;;;13.90;102960.00;;;;4969577;28;20209;-75
2022/03/25 08:01:35;;;;;;;40.58;25.00;;;;;14.00;102965.00;;;;4971782;28;20269;-76
2022/03/25 08:04:04;;;;;;;37.65;23.08;;;;;14.00;102966.00;;;;4971717;28;20802;-75
2022/03/25 08:06:31;;;;;;;40.08;25.58;;;;;14.10;102969.00;;;;4971086;28;20653;-76
2022/03/25 08:09:00;;;;;;;37.83;24.35;;;;;14.20;102978.00;;;;4970886;28;20206;-75
2022/03/25 08:11:27;;;;;;;37.60;23.65;;;;;14.30;102981.00;;;;4986817;28;20248;-75
2022/03/25 08:13:55;;;;;;;37.65;24.40;;;;;14.40;102979.00;;;;4990347;28;20212;-75
2022/03/25 08:16:22;;;;;;;38.85;24.40;;;;;14.50;102981.00;;;;4981788;28;20253;-75
2022/03/25 08:18:49;;;;;;;37.60;23.52;;;;;14.60;102988.00;;;;4970697;28;20207;-75
2022/03/25 08:21:18;;;;;;;38.67;25.00;;;;;14.70;102989.00;;;;4951790;28;20206;-76
2022/03/25 08:29:17;;;;;;;35.90;22.63;;;;;14.90;103002.00;;;;4970809;28;20249;-76
2022/03/25 08:31:44;;;;;;;31.48;21.58;;;;;15.00;102998.00;;;;4971462;28;20190;-75
2022/03/25 08:34:14;;;;;;;35.97;23.05;;;;;15.10;102999.00;;;;4970214;28;20194;-76
2022/03/25 08:36:43;;;;;;;35.17;22.33;;;;;15.20;102993.00;;;;4971071;28;20229;-76
2022/03/25 08:39:11;;;;;;;36.85;21.98;;;;;15.30;102999.00;;;;4970850;28;20225;-76
2022/03/25 08:41:38;;;;;;;30.58;20.60;;;;;15.40;103006.00;;;;4969912;28;20595;-75
2022/03/25 08:44:07;;;;;;;41.58;22.90;;;;;15.40;103005.00;;;;4970706;28;20256;-75
2022/03/25 08:46:35;;;;;;;33.45;21.80;;;;;15.50;103004.00;;;;4979123;28;20301;-74
2022/03/25 08:49:02;;;;;;;34.17;22.15;;;;;15.60;103005.00;;;;4986933;28;20198;-73
2022/03/25 08:51:30;;;;;;;33.65;20.73;;;;;15.70;103003.00;;;;4969636;28;20194;-74
2022/03/25 08:53:58;;;;;;;28.58;19.17;;;;;15.70;103006.00;;;;4969397;28;20213;-74
2022/03/25 08:56:27;;;;;;;30.90;19.20;;;;;15.90;103002.00;;;;4968342;28;20716;-74
2022/03/25 08:58:55;;;;;;;30.27;19.48;;;;;16.00;103008.00;;;;4968949;28;21057;-73
2022/03/25 09:01:23;;;;;;;26.05;17.63;;;;;16.00;103009.00;;;;4968424;28;20965;-73
2022/03/25 09:03:50;;;;;;;30.20;18.27;;;;;16.10;103017.00;;;;4972511;28;20300;-73
2022/03/25 09:06:18;;;;;;;27.88;18.75;;;;;16.20;103009.00;;;;4967489;28;20581;-74
2022/03/25 09:08:45;;;;;;;32.90;19.92;;;;;16.30;103013.00;;;;4971750;28;20320;-73
2022/03/25 09:11:14;;;;;;;30.90;18.75;;;;;16.40;103025.00;;;;4969611;28;20206;-74
2022/03/25 09:13:41;;;;;;;28.55;18.08;;;;;16.50;103022.00;;;;4968722;28;20253;-74
2022/03/25 09:16:11;;;;;;;30.45;18.10;;;;;16.60;103025.00;;;;4968652;28;20934;-75
2022/03/25 09:18:38;;;;;;;29.02;18.05;;;;;16.70;103017.00;;;;4969205;28;20213;-75
2022/03/25 09:21:06;;;;;;;31.17;18.42;;;;;16.70;103020.00;;;;4981347;28;20205;-75
2022/03/25 09:23:33;;;;;;;30.10;17.75;;;;;16.80;103019.00;;;;4979678;28;20237;-74
2022/03/25 09:26:01;;;;;;;25.48;16.63;;;;;16.90;103021.00;;;;4981344;28;20601;-74
2022/03/25 09:28:30;;;;;;;25.63;16.42;;;;;16.90;103027.00;;;;4971806;28;20202;-74
2022/03/25 09:30:57;;;;;;;29.05;17.85;;;;;17.00;103027.00;;;;4968769;28;20203;-74
2022/03/25 09:33:26;;;;;;;24.75;16.40;;;;;17.10;103018.00;;;;4968770;28;20194;-74
2022/03/25 09:35:53;;;;;;;25.02;16.02;;;;;17.20;103018.00;;;;4969142;28;20203;-74
2022/03/25 09:38:20;;;;;;;23.45;14.73;;;;;17.30;103025.00;;;;4983544;28;20263;-75
2022/03/25 09:40:49;;;;;;;24.92;14.98;;;;;17.40;103029.00;;;;4988061;28;20206;-75
2022/03/25 09:43:18;;;;;;;26.20;15.70;;;;;17.50;103023.00;;;;4985222;28;20220;-75
2022/03/25 09:45:47;;;;;;;24.90;15.20;;;;;17.60;103026.00;;;;4969656;28;20206;-75
2022/03/25 09:48:14;;;;;;;23.60;15.05;;;;;17.70;103026.00;;;;4968747;28;20673;-75
2022/03/25 09:50:42;;;;;;;22.83;14.52;;;;;17.80;103025.00;;;;4968971;28;20206;-75
2022/03/25 09:53:10;;;;;;;21.40;14.43;;;;;17.90;103018.00;;;;4968063;28;20218;-75
2022/03/25 09:55:40;;;;;;;21.67;14.18;;;;;18.00;103019.00;;;;4984164;28;20252;-75
2022/03/25 09:58:08;;;;;;;23.95;14.00;;;;;18.10;103021.00;;;;4968363;28;20305;-75
2022/03/25 10:00:35;;;;;;;24.90;14.73;;;;;18.20;103021.00;;;;4969422;28;20191;-75
2022/03/25 10:03:04;;;;;;;23.25;14.52;;;;;18.30;103020.00;;;;4968852;28;20882;-75
2022/03/25 10:05:31;;;;;;;21.63;15.55;;;;;18.40;103015.00;;;;4969378;28;20209;-75
2022/03/25 10:07:59;;;;;;;22.27;14.32;;;;;18.40;103021.00;;;;4969790;28;20225;-75
2022/03/25 10:10:28;;;;;;;23.92;15.90;;;;;18.60;103019.00;;;;4971180;28;20214;-75
2022/03/25 10:13:02;;;;;;;25.02;14.95;;;;;18.60;103020.00;;;;4991906;28;20661;-75
2022/03/25 10:15:30;;;;;;;23.38;15.48;;;;;18.80;103018.00;;;;4967408;28;20235;-75
2022/03/25 10:18:01;;;;;;;25.45;17.70;;;;;18.90;103023.00;;;;4965116;28;20226;-75
2022/03/25 10:20:31;;;;;;;29.92;16.48;;;;;19.00;103015.00;;;;4971710;28;20612;-75
2022/03/25 10:23:05;;;;;;;25.30;16.95;;;;;19.10;103018.00;;;;4972426;28;20314;-76
2022/03/25 10:25:38;;;;;;;25.27;16.83;;;;;19.30;103016.00;;;;4971768;28;20224;-76
2022/03/25 10:28:06;;;;;;;26.73;15.93;;;;;19.40;103015.00;;;;4976942;28;20292;-76
2022/03/25 10:30:41;;;;;;;23.42;16.35;;;;;19.40;103016.00;;;;4972491;28;20194;-76
2022/03/25 10:33:10;;;;;;;23.10;15.27;;;;;19.50;103011.00;;;;4971553;28;20209;-76
2022/03/25 10:36:01;;;;;;;28.00;14.68;;;;;19.50;103017.00;;;;4952856;28;20289;-76
2022/03/25 10:38:40;;;;;;;28.30;14.45;;;;;19.70;103015.00;;;;4948429;28;20207;-76
2022/03/25 10:41:08;;;;;;;21.73;13.63;;;;;19.80;103008.00;;;;4952301;28;20962;-76
2022/03/25 10:43:35;;;;;;;23.38;15.63;;;;;19.90;103010.00;;;;4961949;28;20225;-76
2022/03/25 10:46:03;;;;;;;21.45;14.20;;;;;20.00;103009.00;;;;4984343;28;20285;-75
2022/03/25 10:48:30;;;;;;;22.15;15.98;;;;;20.20;103012.00;;;;4987202;28;20198;-76
2022/03/25 10:51:04;;;;;;;23.33;16.02;;;;;20.20;103006.00;;;;4971700;28;20712;-76
2022/03/25 10:53:33;;;;;;;23.63;15.18;;;;;20.30;103012.00;;;;4965146;28;20218;-76
2022/03/25 10:56:03;;;;;;;26.63;16.58;;;;;20.30;103012.00;;;;4982117;28;20677;-75
2022/03/25 10:58:31;;;;;;;28.25;18.25;;;;;20.40;103007.00;;;;4972245;28;20293;-76
2022/03/25 11:00:59;;;;;;;26.17;16.30;;;;;20.50;103014.00;;;;4979723;28;20205;-76
2022/03/25 11:03:27;;;;;;;24.27;16.52;;;;;20.50;103008.00;;;;4983444;28;20229;-75
2022/03/25 11:05:55;;;;;;;25.05;15.85;;;;;20.60;103006.00;;;;4991387;28;20213;-76
2022/03/25 11:08:24;;;;;;;24.70;16.25;;;;;20.70;103018.00;;;;4990253;28;20198;-76
2022/03/25 11:10:52;;;;;;;23.83;16.17;;;;;20.80;103010.00;;;;4973463;28;20296;-76
2022/03/25 11:13:22;;;;;;;25.23;16.48;;;;;20.80;103013.00;;;;4970048;28;20758;-76
2022/03/25 11:15:52;;;;;;;22.38;14.85;;;;;20.90;103006.00;;;;4971940;28;20230;-76
2022/03/25 11:18:21;;;;;;;38.85;15.80;;;;;21.00;103007.00;;;;4970652;28;20209;-76
2022/03/25 11:20:48;;;;;;;25.25;16.70;;;;;21.10;103000.00;;;;4978870;28;20221;-76
2022/03/25 11:23:20;;;;;;;23.23;17.15;;;;;21.10;103008.00;;;;4973866;28;20229;-75
2022/03/25 11:25:53;;;;;;;27.88;16.77;;;;;21.20;103010.00;;;;4983110;28;20668;-76
2022/03/25 11:28:29;;;;;;;25.95;17.35;;;;;21.30;103005.00;;;;4983149;28;20237;-76
2022/03/25 11:31:01;;;;;;;23.13;15.95;;;;;21.40;102999.00;;;;4967884;28;20194;-76
2022/03/25 11:33:30;;;;;;;26.33;16.50;;;;;21.50;103002.00;;;;4975779;28;20259;-77
2022/03/25 11:36:18;;;;;;;21.95;16.48;;;;;21.50;102998.00;;;;4978180;28;20323;-77
2022/03/25 11:38:46;;;;;;;23.52;15.93;;;;;21.70;103000.00;;;;4980247;28;20206;-76
2022/03/25 11:41:27;;;;;;;23.10;16.35;;;;;21.80;102996.00;;;;4975462;28;20212;-74
2022/03/25 11:44:25;;;;;;;23.40;16.60;;;;;21.90;103003.00;;;;4970538;28;20240;-74
2022/03/25 11:47:17;;;;;;;21.98;14.77;;;;;21.90;103003.00;;;;4970826;28;20202;-74
2022/03/25 11:49:45;;;;;;;23.15;15.85;;;;;22.10;103004.00;;;;4971236;28;20262;-76
2022/03/25 11:52:29;;;;;;;23.88;16.05;;;;;22.10;102994.00;;;;4970679;28;20191;-74
2022/03/25 11:54:59;;;;;;;22.52;16.17;;;;;22.20;102990.00;;;;4990365;28;20217;-74
2022/03/25 11:57:29;;;;;;;24.23;16.70;;;;;22.30;102990.00;;;;4972715;28;20240;-74
2022/03/25 11:59:58;;;;;;;23.40;14.90;;;;;22.40;102990.00;;;;4970762;28;20202;-74
2022/03/25 12:02:29;;;;;;;23.48;17.13;;;;;22.50;102991.00;;;;4970418;28;20281;-74